sensor_id;sensor_type;location;lat;lon;timestamp;pressure;altitude;pressure_sealevel;temperature;humidity
77626;BME280;66794;43.764;10.436;2023-07-28T00:02:05;101631.28;;;21.37;100.00
77626;BME280;66794;43.764;10.436;2023-07-28T00:04:50;101631.19;;;21.44;100.00
77626;BME280;66794;43.764;10.436;2023-07-28T00:07:36;101624.28;;;21.10;100.00
77626;BME280;66794;43.764;10.436;2023-07-28T00:10:22;101616.63;;;21.12;100.00
77626;BME280;66794;43.764;10.436;2023-07-28T00:13:08;101594.03;;;20.78;100.00
77626;BME280;66794;43.764;10.436;2023-07-28T00:15:54;101614.53;;;20.51;100.00
77626;BME280;66794;43.764;10.436;2023-07-28T00:18:40;101597.63;;;20.79;100.00
77626;BME280;66794;43.764;10.436;2023-07-28T00:21:26;101606.47;;;20.56;100.00
77626;BME280;66794;43.764;10.436;2023-07-28T00:24:12;101599.84;;;20.63;100.00
77626;BME280;66794;43.764;10.436;2023-07-28T00:26:58;101596.97;;;20.77;100.00
77626;BME280;66794;43.764;10.436;2023-07-28T00:29:44;101582.38;;;20.51;100.00
77626;BME280;66794;43.764;10.436;2023-07-28T00:32:29;101571.97;;;20.53;100.00
77626;BME280;66794;43.764;10.436;2023-07-28T00:35:15;101590.94;;;20.30;100.00
77626;BME280;66794;43.764;10.436;2023-07-28T00:38:01;101580.28;;;20.40;100.00
77626;BME280;66794;43.764;10.436;2023-07-28T00:40:47;101585.63;;;20.35;100.00
77626;BME280;66794;43.764;10.436;2023-07-28T00:43:32;101576.88;;;20.44;100.00
77626;BME280;66794;43.764;10.436;2023-07-28T00:46:18;101563.66;;;20.60;100.00
77626;BME280;66794;43.764;10.436;2023-07-28T00:49:04;101580.81;;;20.62;100.00
77626;BME280;66794;43.764;10.436;2023-07-28T00:51:50;101578.00;;;20.68;100.00
77626;BME280;66794;43.764;10.436;2023-07-28T00:54:37;101569.34;;;20.65;100.00
77626;BME280;66794;43.764;10.436;2023-07-28T00:57:23;101565.09;;;20.69;100.00
77626;BME280;66794;43.764;10.436;2023-07-28T01:00:09;101559.97;;;20.72;100.00
77626;BME280;66794;43.764;10.436;2023-07-28T01:02:56;101587.69;;;20.39;100.00
77626;BME280;66794;43.764;10.436;2023-07-28T01:06:10;101597.13;;;20.18;100.00
77626;BME280;66794;43.764;10.436;2023-07-28T01:09:03;101595.78;;;20.28;100.00
77626;BME280;66794;43.764;10.436;2023-07-28T01:11:58;101586.13;;;20.57;100.00
77626;BME280;66794;43.764;10.436;2023-07-28T01:14:44;101577.53;;;20.40;100.00
77626;BME280;66794;43.764;10.436;2023-07-28T01:17:30;101592.00;;;20.29;100.00
77626;BME280;66794;43.764;10.436;2023-07-28T01:20:16;101579.47;;;20.33;100.00
77626;BME280;66794;43.764;10.436;2023-07-28T01:23:19;101543.69;;;20.39;100.00
77626;BME280;66794;43.764;10.436;2023-07-28T01:26:08;101594.56;;;20.62;100.00
77626;BME280;66794;43.764;10.436;2023-07-28T01:28:54;101587.63;;;20.53;100.00
77626;BME280;66794;43.764;10.436;2023-07-28T01:31:41;101584.28;;;20.75;100.00
77626;BME280;66794;43.764;10.436;2023-07-28T01:34:26;101586.66;;;20.97;100.00
77626;BME280;66794;43.764;10.436;2023-07-28T01:37:12;101576.38;;;20.86;100.00
77626;BME280;66794;43.764;10.436;2023-07-28T01:39:59;101589.88;;;20.94;100.00
77626;BME280;66794;43.764;10.436;2023-07-28T01:42:45;101606.50;;;21.06;100.00
77626;BME280;66794;43.764;10.436;2023-07-28T01:45:30;101610.38;;;20.98;100.00
77626;BME280;66794;43.764;10.436;2023-07-28T01:48:16;101610.19;;;20.68;100.00
77626;BME280;66794;43.764;10.436;2023-07-28T01:51:02;101599.88;;;20.88;100.00
77626;BME280;66794;43.764;10.436;2023-07-28T01:53:48;101619.66;;;20.79;100.00
77626;BME280;66794;43.764;10.436;2023-07-28T01:56:33;101600.25;;;20.92;100.00
77626;BME280;66794;43.764;10.436;2023-07-28T01:59:19;101588.88;;;20.88;100.00
77626;BME280;66794;43.764;10.436;2023-07-28T02:02:06;101593.09;;;21.09;100.00
77626;BME280;66794;43.764;10.436;2023-07-28T02:04:51;101578.06;;;21.12;100.00
77626;BME280;66794;43.764;10.436;2023-07-28T02:07:37;101612.19;;;21.11;100.00
77626;BME280;66794;43.764;10.436;2023-07-28T02:10:23;101612.53;;;20.96;100.00
77626;BME280;66794;43.764;10.436;2023-07-28T02:13:09;101615.28;;;20.64;100.00
77626;BME280;66794;43.764;10.436;2023-07-28T02:15:55;101611.94;;;20.62;100.00
77626;BME280;66794;43.764;10.436;2023-07-28T02:18:41;101617.56;;;20.36;100.00
77626;BME280;66794;43.764;10.436;2023-07-28T02:21:26;101620.22;;;20.56;100.00
77626;BME280;66794;43.764;10.436;2023-07-28T02:24:13;101618.44;;;20.30;100.00
77626;BME280;66794;43.764;10.436;2023-07-28T02:26:59;101611.41;;;20.40;100.00
77626;BME280;66794;43.764;10.436;2023-07-28T02:29:44;101599.94;;;20.50;100.00
77626;BME280;66794;43.764;10.436;2023-07-28T02:32:31;101622.75;;;20.57;100.00
77626;BME280;66794;43.764;10.436;2023-07-28T02:35:17;101620.44;;;20.54;100.00
77626;BME280;66794;43.764;10.436;2023-07-28T02:38:03;101636.06;;;20.60;100.00
77626;BME280;66794;43.764;10.436;2023-07-28T02:40:48;101608.41;;;20.04;100.00
77626;BME280;66794;43.764;10.436;2023-07-28T02:43:34;101644.75;;;20.06;100.00
77626;BME280;66794;43.764;10.436;2023-07-28T02:46:20;101641.16;;;20.12;100.00
77626;BME280;66794;43.764;10.436;2023-07-28T02:49:06;101651.59;;;19.90;100.00
77626;BME280;66794;43.764;10.436;2023-07-28T02:51:51;101643.84;;;19.74;100.00
77626;BME280;66794;43.764;10.436;2023-07-28T02:54:37;101651.66;;;19.50;100.00
77626;BME280;66794;43.764;10.436;2023-07-28T02:57:23;101672.34;;;19.46;100.00
77626;BME280;66794;43.764;10.436;2023-07-28T03:00:09;101674.88;;;19.54;100.00
77626;BME280;66794;43.764;10.436;2023-07-28T03:02:56;101680.38;;;19.81;100.00
77626;BME280;66794;43.764;10.436;2023-07-28T03:05:41;101675.88;;;20.06;100.00
77626;BME280;66794;43.764;10.436;2023-07-28T03:08:27;101673.97;;;20.00;100.00
77626;BME280;66794;43.764;10.436;2023-07-28T03:11:13;101669.06;;;20.15;100.00
77626;BME280;66794;43.764;10.436;2023-07-28T03:13:59;101636.13;;;20.02;100.00
77626;BME280;66794;43.764;10.436;2023-07-28T03:16:44;101653.19;;;20.17;100.00
77626;BME280;66794;43.764;10.436;2023-07-28T03:19:30;101637.53;;;20.18;100.00
77626;BME280;66794;43.764;10.436;2023-07-28T03:22:16;101652.06;;;20.32;100.00
77626;BME280;66794;43.764;10.436;2023-07-28T03:25:02;101651.59;;;19.96;100.00
77626;BME280;66794;43.764;10.436;2023-07-28T03:27:48;101655.41;;;19.82;100.00
77626;BME280;66794;43.764;10.436;2023-07-28T03:30:34;101657.09;;;19.96;100.00
77626;BME280;66794;43.764;10.436;2023-07-28T03:33:20;101649.72;;;19.77;100.00
77626;BME280;66794;43.764;10.436;2023-07-28T03:36:05;101665.16;;;19.72;100.00
77626;BME280;66794;43.764;10.436;2023-07-28T03:38:51;101660.25;;;19.93;100.00
77626;BME280;66794;43.764;10.436;2023-07-28T03:41:37;101646.31;;;19.82;100.00
77626;BME280;66794;43.764;10.436;2023-07-28T03:44:23;101645.00;;;19.98;100.00
77626;BME280;66794;43.764;10.436;2023-07-28T03:47:09;101640.25;;;19.60;100.00
77626;BME280;66794;43.764;10.436;2023-07-28T03:49:54;101666.22;;;19.51;100.00
77626;BME280;66794;43.764;10.436;2023-07-28T03:52:40;101664.97;;;19.60;100.00
77626;BME280;66794;43.764;10.436;2023-07-28T03:55:26;101650.59;;;19.64;100.00
77626;BME280;66794;43.764;10.436;2023-07-28T03:58:12;101658.63;;;19.79;100.00
77626;BME280;66794;43.764;10.436;2023-07-28T04:00:57;101676.16;;;19.38;100.00
77626;BME280;66794;43.764;10.436;2023-07-28T04:03:43;101678.09;;;19.64;100.00
77626;BME280;66794;43.764;10.436;2023-07-28T04:06:42;101675.53;;;19.50;100.00
77626;BME280;66794;43.764;10.436;2023-07-28T04:09:28;101690.53;;;19.54;100.00
77626;BME280;66794;43.764;10.436;2023-07-28T04:12:14;101685.25;;;19.52;100.00
77626;BME280;66794;43.764;10.436;2023-07-28T04:15:00;101681.44;;;19.66;100.00
77626;BME280;66794;43.764;10.436;2023-07-28T04:17:46;101666.03;;;19.52;100.00
77626;BME280;66794;43.764;10.436;2023-07-28T04:20:31;101690.13;;;19.43;100.00
77626;BME280;66794;43.764;10.436;2023-07-28T04:23:17;101683.97;;;19.55;100.00
77626;BME280;66794;43.764;10.436;2023-07-28T04:26:03;101683.97;;;19.55;100.00
77626;BME280;66794;43.764;10.436;2023-07-28T04:28:49;101680.81;;;19.38;100.00
77626;BME280;66794;43.764;10.436;2023-07-28T04:31:34;101673.41;;;19.45;100.00
77626;BME280;66794;43.764;10.436;2023-07-28T04:34:20;101682.31;;;19.60;100.00
77626;BME280;66794;43.764;10.436;2023-07-28T04:37:06;101682.53;;;19.26;100.00
77626;BME280;66794;43.764;10.436;2023-07-28T04:39:51;101694.34;;;19.20;100.00
77626;BME280;66794;43.764;10.436;2023-07-28T04:42:37;101693.72;;;19.70;100.00
77626;BME280;66794;43.764;10.436;2023-07-28T04:45:23;101683.78;;;19.43;100.00
77626;BME280;66794;43.764;10.436;2023-07-28T04:48:09;101668.56;;;19.47;100.00
77626;BME280;66794;43.764;10.436;2023-07-28T04:50:54;101681.44;;;19.80;100.00
77626;BME280;66794;43.764;10.436;2023-07-28T04:53:40;101672.25;;;20.06;100.00
77626;BME280;66794;43.764;10.436;2023-07-28T04:56:26;101672.94;;;20.01;100.00
77626;BME280;66794;43.764;10.436;2023-07-28T04:59:12;101678.22;;;19.96;100.00
77626;BME280;66794;43.764;10.436;2023-07-28T05:01:58;101676.50;;;20.08;100.00
77626;BME280;66794;43.764;10.436;2023-07-28T05:04:43;101675.94;;;19.86;100.00
77626;BME280;66794;43.764;10.436;2023-07-28T05:07:29;101685.19;;;19.99;100.00
77626;BME280;66794;43.764;10.436;2023-07-28T05:10:15;101684.91;;;20.20;100.00
77626;BME280;66794;43.764;10.436;2023-07-28T05:13:01;101684.19;;;20.44;100.00
77626;BME280;66794;43.764;10.436;2023-07-28T05:15:49;101686.94;;;20.38;100.00
77626;BME280;66794;43.764;10.436;2023-07-28T05:18:35;101678.50;;;20.33;100.00
77626;BME280;66794;43.764;10.436;2023-07-28T05:21:22;101673.78;;;20.53;100.00
77626;BME280;66794;43.764;10.436;2023-07-28T05:24:08;101689.63;;;20.58;100.00
77626;BME280;66794;43.764;10.436;2023-07-28T05:26:54;101686.47;;;20.61;100.00
77626;BME280;66794;43.764;10.436;2023-07-28T05:29:40;101700.03;;;20.87;100.00
77626;BME280;66794;43.764;10.436;2023-07-28T05:32:25;101709.41;;;20.80;100.00
77626;BME280;66794;43.764;10.436;2023-07-28T05:35:11;101698.78;;;20.45;100.00
77626;BME280;66794;43.764;10.436;2023-07-28T05:37:57;101717.41;;;20.43;100.00
77626;BME280;66794;43.764;10.436;2023-07-28T05:40:43;101712.47;;;20.65;100.00
77626;BME280;66794;43.764;10.436;2023-07-28T05:43:31;101717.63;;;20.86;100.00
77626;BME280;66794;43.764;10.436;2023-07-28T05:46:17;101722.44;;;20.97;100.00
77626;BME280;66794;43.764;10.436;2023-07-28T05:49:04;101726.56;;;20.82;100.00
77626;BME280;66794;43.764;10.436;2023-07-28T05:51:50;101739.91;;;21.16;100.00
77626;BME280;66794;43.764;10.436;2023-07-28T05:54:36;101740.09;;;21.15;100.00
77626;BME280;66794;43.764;10.436;2023-07-28T05:57:21;101728.44;;;20.88;100.00
77626;BME280;66794;43.764;10.436;2023-07-28T06:00:08;101720.72;;;20.65;100.00
77626;BME280;66794;43.764;10.436;2023-07-28T06:02:55;101713.38;;;20.90;100.00
77626;BME280;66794;43.764;10.436;2023-07-28T06:05:41;101694.59;;;21.12;100.00
77626;BME280;66794;43.764;10.436;2023-07-28T06:08:27;101699.53;;;21.28;100.00
77626;BME280;66794;43.764;10.436;2023-07-28T06:11:13;101690.69;;;21.20;100.00
77626;BME280;66794;43.764;10.436;2023-07-28T06:13:58;101710.16;;;21.32;100.00
77626;BME280;66794;43.764;10.436;2023-07-28T06:16:44;101730.47;;;21.37;100.00
77626;BME280;66794;43.764;10.436;2023-07-28T06:19:31;101735.78;;;21.25;100.00
77626;BME280;66794;43.764;10.436;2023-07-28T06:22:16;101718.81;;;21.60;100.00
77626;BME280;66794;43.764;10.436;2023-07-28T06:25:02;101692.94;;;21.36;100.00
77626;BME280;66794;43.764;10.436;2023-07-28T06:27:48;101724.50;;;21.65;100.00
77626;BME280;66794;43.764;10.436;2023-07-28T06:30:34;101700.78;;;21.83;100.00
77626;BME280;66794;43.764;10.436;2023-07-28T06:33:19;101705.06;;;21.78;100.00
77626;BME280;66794;43.764;10.436;2023-07-28T06:36:05;101710.28;;;22.05;100.00
77626;BME280;66794;43.764;10.436;2023-07-28T06:38:51;101708.47;;;22.17;100.00
77626;BME280;66794;43.764;10.436;2023-07-28T06:41:38;101713.06;;;22.05;100.00
77626;BME280;66794;43.764;10.436;2023-07-28T06:44:24;101699.19;;;21.93;100.00
77626;BME280;66794;43.764;10.436;2023-07-28T06:47:09;101684.00;;;21.84;100.00
77626;BME280;66794;43.764;10.436;2023-07-28T06:49:55;101696.75;;;22.03;100.00
77626;BME280;66794;43.764;10.436;2023-07-28T06:52:41;101706.53;;;21.99;100.00
77626;BME280;66794;43.764;10.436;2023-07-28T06:55:27;101683.72;;;21.92;100.00
77626;BME280;66794;43.764;10.436;2023-07-28T06:58:12;101704.78;;;22.05;100.00
77626;BME280;66794;43.764;10.436;2023-07-28T07:00:58;101690.00;;;21.99;100.00
77626;BME280;66794;43.764;10.436;2023-07-28T07:03:44;101659.66;;;21.99;100.00
77626;BME280;66794;43.764;10.436;2023-07-28T07:06:30;101679.25;;;22.10;100.00
77626;BME280;66794;43.764;10.436;2023-07-28T07:09:15;101678.03;;;21.87;100.00
77626;BME280;66794;43.764;10.436;2023-07-28T07:12:01;101704.09;;;21.91;100.00
77626;BME280;66794;43.764;10.436;2023-07-28T07:14:47;101674.53;;;21.55;100.00
77626;BME280;66794;43.764;10.436;2023-07-28T07:17:33;101707.38;;;22.00;100.00
77626;BME280;66794;43.764;10.436;2023-07-28T07:20:19;101705.78;;;21.92;100.00
77626;BME280;66794;43.764;10.436;2023-07-28T07:23:05;101741.47;;;22.05;100.00
77626;BME280;66794;43.764;10.436;2023-07-28T07:25:51;101709.28;;;21.99;100.00
77626;BME280;66794;43.764;10.436;2023-07-28T07:28:36;101696.09;;;22.01;100.00
77626;BME280;66794;43.764;10.436;2023-07-28T07:31:22;101707.44;;;22.18;100.00
77626;BME280;66794;43.764;10.436;2023-07-28T07:34:08;101688.47;;;22.22;100.00
77626;BME280;66794;43.764;10.436;2023-07-28T07:36:54;101692.16;;;22.16;100.00
77626;BME280;66794;43.764;10.436;2023-07-28T07:39:42;101714.38;;;22.02;100.00
77626;BME280;66794;43.764;10.436;2023-07-28T07:42:40;101711.88;;;22.19;100.00
77626;BME280;66794;43.764;10.436;2023-07-28T07:45:30;101729.41;;;22.43;100.00
77626;BME280;66794;43.764;10.436;2023-07-28T07:48:16;101686.63;;;22.52;100.00
77626;BME280;66794;43.764;10.436;2023-07-28T07:51:01;101712.34;;;22.65;100.00
77626;BME280;66794;43.764;10.436;2023-07-28T07:53:47;101685.38;;;23.08;100.00
77626;BME280;66794;43.764;10.436;2023-07-28T07:56:33;101667.66;;;23.40;100.00
77626;BME280;66794;43.764;10.436;2023-07-28T07:59:18;101663.22;;;23.39;100.00
77626;BME280;66794;43.764;10.436;2023-07-28T08:02:05;101679.69;;;23.45;100.00
77626;BME280;66794;43.764;10.436;2023-07-28T08:04:53;101699.41;;;23.60;100.00
77626;BME280;66794;43.764;10.436;2023-07-28T08:07:39;101713.31;;;23.30;100.00
77626;BME280;66794;43.764;10.436;2023-07-28T08:10:26;101723.69;;;23.05;100.00
77626;BME280;66794;43.764;10.436;2023-07-28T08:13:12;101731.06;;;23.11;100.00
77626;BME280;66794;43.764;10.436;2023-07-28T08:15:57;101722.03;;;23.16;100.00
77626;BME280;66794;43.764;10.436;2023-07-28T08:18:43;101733.09;;;23.16;100.00
77626;BME280;66794;43.764;10.436;2023-07-28T08:21:30;101718.16;;;23.05;100.00
77626;BME280;66794;43.764;10.436;2023-07-28T08:24:21;101729.34;;;23.10;100.00
77626;BME280;66794;43.764;10.436;2023-07-28T08:27:07;101718.44;;;23.15;100.00
77626;BME280;66794;43.764;10.436;2023-07-28T08:29:53;101740.75;;;23.44;100.00
77626;BME280;66794;43.764;10.436;2023-07-28T08:32:39;101719.88;;;23.95;100.00
77626;BME280;66794;43.764;10.436;2023-07-28T08:35:24;101742.13;;;24.00;100.00
77626;BME280;66794;43.764;10.436;2023-07-28T08:38:10;101743.41;;;24.32;100.00
77626;BME280;66794;43.764;10.436;2023-07-28T08:40:57;101733.06;;;24.28;100.00
77626;BME280;66794;43.764;10.436;2023-07-28T08:43:44;101729.63;;;24.61;100.00
77626;BME280;66794;43.764;10.436;2023-07-28T08:46:29;101737.75;;;24.79;100.00
77626;BME280;66794;43.764;10.436;2023-07-28T08:49:16;101727.00;;;24.83;100.00
77626;BME280;66794;43.764;10.436;2023-07-28T08:52:03;101750.28;;;25.10;100.00
77626;BME280;66794;43.764;10.436;2023-07-28T08:54:49;101737.44;;;25.55;100.00
77626;BME280;66794;43.764;10.436;2023-07-28T08:57:35;101737.59;;;25.14;100.00
77626;BME280;66794;43.764;10.436;2023-07-28T09:00:21;101739.13;;;25.39;100.00
77626;BME280;66794;43.764;10.436;2023-07-28T09:03:09;101759.91;;;25.36;100.00
77626;BME280;66794;43.764;10.436;2023-07-28T09:06:03;101748.50;;;26.22;100.00
77626;BME280;66794;43.764;10.436;2023-07-28T09:08:49;101746.34;;;26.46;100.00
77626;BME280;66794;43.764;10.436;2023-07-28T09:11:46;101722.75;;;26.70;100.00
77626;BME280;66794;43.764;10.436;2023-07-28T09:14:35;101725.41;;;26.60;100.00
77626;BME280;66794;43.764;10.436;2023-07-28T09:17:22;101723.13;;;26.79;100.00
77626;BME280;66794;43.764;10.436;2023-07-28T09:20:13;101731.09;;;26.27;100.00
77626;BME280;66794;43.764;10.436;2023-07-28T09:22:59;101682.25;;;26.53;100.00
77626;BME280;66794;43.764;10.436;2023-07-28T09:25:45;101719.78;;;26.33;100.00
77626;BME280;66794;43.764;10.436;2023-07-28T09:28:41;101715.84;;;26.51;100.00
77626;BME280;66794;43.764;10.436;2023-07-28T09:31:30;101719.19;;;27.02;100.00
77626;BME280;66794;43.764;10.436;2023-07-28T09:34:27;101732.28;;;26.36;100.00
77626;BME280;66794;43.764;10.436;2023-07-28T09:37:17;101704.44;;;26.31;100.00
77626;BME280;66794;43.764;10.436;2023-07-28T09:40:03;101704.19;;;26.76;100.00
77626;BME280;66794;43.764;10.436;2023-07-28T09:42:50;101713.81;;;26.68;100.00
77626;BME280;66794;43.764;10.436;2023-07-28T09:45:37;101683.53;;;27.21;100.00
77626;BME280;66794;43.764;10.436;2023-07-28T09:48:23;101663.47;;;27.14;100.00
77626;BME280;66794;43.764;10.436;2023-07-28T09:51:17;101659.97;;;27.34;100.00
77626;BME280;66794;43.764;10.436;2023-07-28T09:54:06;101671.72;;;27.73;100.00
77626;BME280;66794;43.764;10.436;2023-07-28T09:56:57;101670.34;;;27.81;100.00
77626;BME280;66794;43.764;10.436;2023-07-28T09:59:45;101685.47;;;26.93;100.00
77626;BME280;66794;43.764;10.436;2023-07-28T10:02:32;101674.28;;;27.47;100.00
77626;BME280;66794;43.764;10.436;2023-07-28T10:05:18;101687.66;;;27.13;100.00
77626;BME280;66794;43.764;10.436;2023-07-28T10:08:04;101660.16;;;27.22;100.00
77626;BME280;66794;43.764;10.436;2023-07-28T10:10:51;101667.13;;;26.92;100.00
77626;BME280;66794;43.764;10.436;2023-07-28T10:13:42;101668.47;;;27.17;100.00
77626;BME280;66794;43.764;10.436;2023-07-28T10:16:38;101677.34;;;27.51;100.00
77626;BME280;66794;43.764;10.436;2023-07-28T10:19:25;101670.91;;;27.08;100.00
77626;BME280;66794;43.764;10.436;2023-07-28T10:22:12;101677.41;;;26.65;100.00
77626;BME280;66794;43.764;10.436;2023-07-28T10:25:01;101682.31;;;26.58;100.00
77626;BME280;66794;43.764;10.436;2023-07-28T10:27:47;101678.19;;;26.38;100.00
77626;BME280;66794;43.764;10.436;2023-07-28T10:30:38;101678.53;;;26.96;100.00
77626;BME280;66794;43.764;10.436;2023-07-28T10:33:29;101682.44;;;27.59;100.00
77626;BME280;66794;43.764;10.436;2023-07-28T10:39:12;101679.09;;;27.57;100.00
77626;BME280;66794;43.764;10.436;2023-07-28T10:42:04;101670.81;;;27.30;100.00
77626;BME280;66794;43.764;10.436;2023-07-28T10:44:50;101665.63;;;27.81;100.00
77626;BME280;66794;43.764;10.436;2023-07-28T10:47:36;101674.22;;;27.74;100.00
77626;BME280;66794;43.764;10.436;2023-07-28T10:50:23;101678.28;;;28.04;100.00
77626;BME280;66794;43.764;10.436;2023-07-28T10:53:10;101685.16;;;27.17;100.00
77626;BME280;66794;43.764;10.436;2023-07-28T10:55:56;101672.88;;;27.82;100.00
77626;BME280;66794;43.764;10.436;2023-07-28T10:58:42;101680.09;;;27.41;100.00
77626;BME280;66794;43.764;10.436;2023-07-28T11:04:20;101659.63;;;27.20;100.00
77626;BME280;66794;43.764;10.436;2023-07-28T11:07:06;101683.91;;;27.03;100.00
77626;BME280;66794;43.764;10.436;2023-07-28T11:09:52;101681.59;;;27.96;100.00
77626;BME280;66794;43.764;10.436;2023-07-28T11:12:49;101676.47;;;27.45;100.00
77626;BME280;66794;43.764;10.436;2023-07-28T11:15:36;101677.09;;;27.52;100.00
77626;BME280;66794;43.764;10.436;2023-07-28T11:18:22;101679.31;;;28.40;100.00
77626;BME280;66794;43.764;10.436;2023-07-28T11:21:07;101668.22;;;28.55;100.00
77626;BME280;66794;43.764;10.436;2023-07-28T11:23:53;101652.03;;;28.52;100.00
77626;BME280;66794;43.764;10.436;2023-07-28T11:26:39;101662.31;;;28.47;100.00
77626;BME280;66794;43.764;10.436;2023-07-28T11:29:26;101640.72;;;28.12;100.00
77626;BME280;66794;43.764;10.436;2023-07-28T11:32:15;101661.13;;;28.27;100.00
77626;BME280;66794;43.764;10.436;2023-07-28T11:35:08;101675.44;;;28.51;100.00
77626;BME280;66794;43.764;10.436;2023-07-28T11:37:54;101664.28;;;28.46;100.00
77626;BME280;66794;43.764;10.436;2023-07-28T11:40:41;101667.13;;;28.67;100.00
77626;BME280;66794;43.764;10.436;2023-07-28T11:43:27;101656.22;;;28.65;100.00
77626;BME280;66794;43.764;10.436;2023-07-28T11:49:20;101620.53;;;27.79;100.00
77626;BME280;66794;43.764;10.436;2023-07-28T11:52:08;101634.28;;;28.01;100.00
77626;BME280;66794;43.764;10.436;2023-07-28T11:54:53;101656.59;;;29.15;100.00
77626;BME280;66794;43.764;10.436;2023-07-28T11:57:39;101643.13;;;27.93;100.00
77626;BME280;66794;43.764;10.436;2023-07-28T12:00:32;101650.38;;;27.94;100.00
77626;BME280;66794;43.764;10.436;2023-07-28T12:03:29;101646.44;;;28.52;100.00
77626;BME280;66794;43.764;10.436;2023-07-28T12:06:16;101624.81;;;29.11;100.00
77626;BME280;66794;43.764;10.436;2023-07-28T12:09:07;101617.50;;;28.79;100.00
77626;BME280;66794;43.764;10.436;2023-07-28T12:11:54;101634.63;;;28.20;100.00
77626;BME280;66794;43.764;10.436;2023-07-28T12:14:39;101622.00;;;29.26;100.00
77626;BME280;66794;43.764;10.436;2023-07-28T12:17:26;101614.91;;;29.79;100.00
77626;BME280;66794;43.764;10.436;2023-07-28T12:20:13;101627.47;;;28.39;100.00
77626;BME280;66794;43.764;10.436;2023-07-28T12:23:02;101642.84;;;27.94;100.00
77626;BME280;66794;43.764;10.436;2023-07-28T12:25:49;101636.41;;;28.46;100.00
77626;BME280;66794;43.764;10.436;2023-07-28T12:28:36;101647.75;;;28.29;100.00
77626;BME280;66794;43.764;10.436;2023-07-28T12:31:21;101633.28;;;27.70;100.00
77626;BME280;66794;43.764;10.436;2023-07-28T12:34:07;101640.16;;;27.67;100.00
77626;BME280;66794;43.764;10.436;2023-07-28T12:36:53;101614.72;;;28.74;100.00
77626;BME280;66794;43.764;10.436;2023-07-28T12:39:39;101647.41;;;27.63;100.00
77626;BME280;66794;43.764;10.436;2023-07-28T12:42:25;101629.44;;;27.81;100.00
77626;BME280;66794;43.764;10.436;2023-07-28T12:45:11;101640.28;;;28.35;100.00
77626;BME280;66794;43.764;10.436;2023-07-28T12:47:56;101642.03;;;27.99;100.00
77626;BME280;66794;43.764;10.436;2023-07-28T12:50:42;101634.31;;;28.11;100.00
77626;BME280;66794;43.764;10.436;2023-07-28T12:53:28;101623.38;;;28.98;100.00
77626;BME280;66794;43.764;10.436;2023-07-28T12:56:14;101630.84;;;28.46;100.00
77626;BME280;66794;43.764;10.436;2023-07-28T12:59:00;101639.00;;;29.60;100.00
77626;BME280;66794;43.764;10.436;2023-07-28T13:01:46;101640.78;;;28.22;100.00
77626;BME280;66794;43.764;10.436;2023-07-28T13:04:32;101654.91;;;29.24;100.00
77626;BME280;66794;43.764;10.436;2023-07-28T13:07:17;101633.94;;;28.65;100.00
77626;BME280;66794;43.764;10.436;2023-07-28T13:10:06;101624.41;;;29.83;100.00
77626;BME280;66794;43.764;10.436;2023-07-28T13:12:52;101639.81;;;29.45;100.00
77626;BME280;66794;43.764;10.436;2023-07-28T13:15:38;101611.41;;;29.13;100.00
77626;BME280;66794;43.764;10.436;2023-07-28T13:18:24;101614.72;;;29.45;100.00
77626;BME280;66794;43.764;10.436;2023-07-28T13:21:11;101609.16;;;30.30;100.00
77626;BME280;66794;43.764;10.436;2023-07-28T13:23:56;101623.59;;;29.78;100.00
77626;BME280;66794;43.764;10.436;2023-07-28T13:26:42;101630.38;;;29.31;100.00
77626;BME280;66794;43.764;10.436;2023-07-28T13:29:28;101624.13;;;29.85;100.00
77626;BME280;66794;43.764;10.436;2023-07-28T13:32:24;101623.91;;;29.35;100.00
77626;BME280;66794;43.764;10.436;2023-07-28T13:35:10;101606.63;;;29.54;100.00
77626;BME280;66794;43.764;10.436;2023-07-28T13:37:56;101605.97;;;30.47;100.00
77626;BME280;66794;43.764;10.436;2023-07-28T13:40:42;101609.50;;;30.08;100.00
77626;BME280;66794;43.764;10.436;2023-07-28T13:43:27;101620.59;;;29.28;100.00
77626;BME280;66794;43.764;10.436;2023-07-28T13:46:13;101600.44;;;30.37;100.00
77626;BME280;66794;43.764;10.436;2023-07-28T13:48:59;101599.94;;;30.30;100.00
77626;BME280;66794;43.764;10.436;2023-07-28T13:51:44;101620.06;;;29.06;100.00
77626;BME280;66794;43.764;10.436;2023-07-28T13:54:30;101605.28;;;29.11;100.00
77626;BME280;66794;43.764;10.436;2023-07-28T13:57:16;101603.25;;;29.62;100.00
77626;BME280;66794;43.764;10.436;2023-07-28T14:00:03;101572.31;;;29.38;100.00
77626;BME280;66794;43.764;10.436;2023-07-28T14:02:49;101596.63;;;28.97;100.00
77626;BME280;66794;43.764;10.436;2023-07-28T14:05:34;101598.28;;;29.08;100.00
77626;BME280;66794;43.764;10.436;2023-07-28T14:08:20;101586.09;;;29.99;100.00
77626;BME280;66794;43.764;10.436;2023-07-28T14:11:06;101581.59;;;30.03;100.00
77626;BME280;66794;43.764;10.436;2023-07-28T14:13:52;101560.06;;;30.14;100.00
77626;BME280;66794;43.764;10.436;2023-07-28T14:16:38;101572.09;;;30.04;100.00
77626;BME280;66794;43.764;10.436;2023-07-28T14:19:23;101580.47;;;30.04;100.00